< < Back
Terminal Aerodrome Forecast


Current Version              Previous Versions:   1  2  3  4  5  6  7  8  9  

Terminal Aerodrome Forecast

449
FTUS42 KFFC 290933 AAB
TAFATL
TAF AMD
KATL 290933Z 2910/3012 31003KT P6SM SCT150 SCT250
     FM291500 32007KT P6SM SCT050 SCT250
     FM300000 27004KT P6SM SCT250=

Latest METAR

010
SAUS70 KWBC 291000 RRE
MTRATL
METAR KATL 290952Z 00000KT 10SM FEW120 SCT150 SCT250 22/19 A2998 RMK AO2
SLP144 T02220194


USA.gov is the U.S. government's official web portal to all federal, state and local government web resources and services.